createdAt,value
2022-09-15T00:02:18.585Z,987.27
2022-09-15T00:07:18.456Z,987.35
2022-09-15T00:12:18.381Z,987.37
2022-09-15T00:17:18.325Z,987.39
2022-09-15T00:22:18.251Z,987.49
2022-09-15T00:27:18.197Z,987.36
2022-09-15T00:32:18.118Z,987.50
2022-09-15T00:37:18.069Z,987.45
2022-09-15T00:42:17.986Z,987.42
2022-09-15T00:47:19.711Z,987.57
2022-09-15T00:52:17.852Z,987.64
2022-09-15T00:57:17.791Z,987.68
2022-09-15T01:02:17.765Z,987.65
2022-09-15T01:07:17.659Z,987.65
2022-09-15T01:12:17.583Z,987.63
2022-09-15T01:17:17.525Z,987.61
2022-09-15T01:22:17.448Z,987.61
2022-09-15T01:27:38.140Z,987.70
2022-09-15T01:32:18.346Z,987.71
2022-09-15T01:37:17.265Z,987.65
2022-09-15T01:42:17.187Z,987.67
2022-09-15T01:47:17.127Z,987.67
2022-09-15T01:52:17.051Z,987.68
2022-09-15T01:57:16.990Z,987.62
2022-09-15T02:02:16.984Z,987.60
2022-09-15T02:07:16.869Z,987.52
2022-09-15T02:12:16.782Z,987.48
2022-09-15T02:17:16.722Z,987.49
2022-09-15T02:22:16.648Z,987.46
2022-09-15T02:27:16.589Z,987.42
2022-09-15T02:32:16.514Z,987.41
2022-09-15T02:37:16.455Z,987.40
2022-09-15T02:42:16.383Z,987.38
2022-09-15T02:47:16.320Z,987.36
2022-09-15T02:52:16.246Z,987.30
2022-09-15T02:57:16.185Z,987.30
2022-09-15T03:02:16.162Z,987.24
2022-09-15T03:07:16.052Z,987.33
2022-09-15T03:12:15.980Z,987.30
2022-09-15T03:17:15.920Z,987.32
2022-09-15T03:22:15.842Z,987.31
2022-09-15T03:27:15.782Z,987.32
2022-09-15T03:32:15.710Z,987.42
2022-09-15T03:37:15.656Z,987.43
2022-09-15T03:42:15.596Z,987.41
2022-09-15T03:47:15.511Z,987.39
2022-09-15T03:52:15.467Z,987.37
2022-09-15T03:57:15.376Z,987.39
2022-09-15T04:02:15.410Z,987.36
2022-09-15T04:07:15.241Z,987.38
2022-09-15T04:12:15.192Z,987.42
2022-09-15T04:17:15.109Z,987.51
2022-09-15T04:22:17.843Z,987.61
2022-09-15T04:27:14.973Z,987.61
2022-09-15T04:32:14.914Z,987.65
2022-09-15T04:37:14.843Z,987.63
2022-09-15T04:42:14.780Z,987.67
2022-09-15T04:47:14.706Z,987.65
2022-09-15T04:52:14.647Z,987.56
2022-09-15T04:57:14.572Z,987.59
2022-09-15T05:02:14.557Z,987.62
2022-09-15T05:07:14.443Z,987.72
2022-09-15T05:12:14.391Z,987.80
2022-09-15T05:17:14.308Z,987.74
2022-09-15T05:22:14.260Z,987.71
2022-09-15T05:27:14.176Z,987.80
2022-09-15T05:32:14.126Z,987.74
2022-09-15T05:37:14.045Z,987.79
2022-09-15T05:42:13.985Z,987.78
2022-09-15T05:47:13.914Z,987.80
2022-09-15T05:52:13.854Z,987.76
2022-09-15T05:57:13.776Z,987.72
2022-09-15T06:02:13.765Z,987.75
2022-09-15T06:07:13.648Z,987.79
2022-09-15T06:12:13.587Z,987.76
2022-09-15T06:17:13.516Z,987.89
2022-09-15T06:22:13.462Z,987.86
2022-09-15T06:27:13.386Z,987.94
2022-09-15T06:32:13.389Z,987.92
2022-09-15T06:37:13.258Z,988.01
2022-09-15T06:42:13.982Z,988.06
2022-09-15T06:47:13.124Z,988.13
2022-09-15T06:52:13.065Z,988.16
2022-09-15T06:57:12.993Z,988.20
2022-09-15T07:02:13.123Z,988.26
2022-09-15T07:07:12.869Z,988.23
2022-09-15T07:12:12.814Z,988.29
2022-09-15T07:17:12.733Z,988.29
2022-09-15T07:22:12.681Z,988.33
2022-09-15T07:27:12.649Z,988.35
2022-09-15T07:32:12.547Z,988.40
2022-09-15T07:37:12.472Z,988.44
2022-09-15T07:42:12.405Z,988.47
2022-09-15T07:47:12.334Z,988.56
2022-09-15T07:52:12.274Z,988.65
2022-09-15T07:57:12.200Z,988.79
2022-09-15T08:02:12.228Z,988.78
2022-09-15T08:07:12.068Z,988.80
2022-09-15T08:12:12.010Z,988.81
2022-09-15T08:17:11.999Z,988.85
2022-09-15T08:22:11.889Z,988.88
2022-09-15T08:27:11.807Z,988.86
2022-09-15T08:32:11.762Z,988.81
2022-09-15T08:37:11.677Z,988.80
2022-09-15T08:42:11.639Z,988.71
2022-09-15T08:47:11.544Z,988.70
2022-09-15T08:52:11.494Z,988.76
2022-09-15T08:57:11.412Z,988.88
2022-09-15T09:02:11.353Z,988.81
2022-09-15T09:07:11.293Z,988.82
2022-09-15T09:12:11.225Z,988.75
2022-09-15T09:17:11.161Z,988.73
2022-09-15T09:22:11.095Z,988.68
2022-09-15T09:27:11.032Z,988.61
2022-09-15T09:32:10.965Z,988.59
2022-09-15T09:37:10.908Z,988.60
2022-09-15T09:42:10.843Z,988.64
2022-09-15T09:47:10.773Z,988.67
2022-09-15T09:52:10.721Z,988.60
2022-09-15T09:57:10.642Z,988.56
2022-09-15T10:02:10.583Z,988.53
2022-09-15T10:07:10.510Z,988.53
2022-09-15T10:12:10.467Z,988.46
2022-09-15T10:17:10.385Z,988.49
2022-09-15T10:22:10.327Z,988.48
2022-09-15T10:27:10.267Z,988.46
2022-09-15T10:32:10.239Z,988.51
2022-09-15T10:37:10.137Z,988.42
2022-09-15T10:42:10.071Z,988.42
2022-09-15T10:47:10.008Z,988.38
2022-09-15T10:52:09.940Z,988.40
2022-09-15T10:57:09.875Z,988.43
2022-09-15T11:02:09.842Z,988.46
2022-09-15T11:07:09.736Z,988.59
2022-09-15T11:12:09.682Z,988.60
2022-09-15T11:17:09.615Z,988.60
2022-09-15T11:22:09.554Z,988.62
2022-09-15T11:27:09.484Z,988.57
2022-09-15T11:32:09.457Z,988.49
2022-09-15T11:37:09.349Z,988.60
2022-09-15T11:42:09.294Z,988.54
2022-09-15T11:47:09.228Z,988.50
2022-09-15T11:52:09.165Z,988.54
2022-09-15T11:57:09.097Z,988.57
2022-09-15T12:02:09.157Z,988.60
2022-09-15T12:07:11.116Z,988.64
2022-09-15T12:12:08.904Z,988.60
2022-09-15T12:17:08.843Z,988.58
2022-09-15T12:22:08.765Z,988.61
2022-09-15T12:27:08.707Z,988.56
2022-09-15T12:32:08.633Z,988.61
2022-09-15T12:37:08.578Z,988.57
2022-09-15T12:42:08.504Z,988.58
2022-09-15T12:47:08.447Z,988.61
2022-09-15T12:52:08.374Z,988.61
2022-09-15T12:57:08.327Z,988.68
2022-09-15T13:02:08.330Z,988.75
2022-09-15T13:07:09.808Z,988.79
2022-09-15T13:12:08.126Z,988.73
2022-09-15T13:17:08.058Z,988.78
2022-09-15T13:22:07.999Z,988.75
2022-09-15T13:27:07.927Z,988.78
2022-09-15T13:32:07.867Z,988.74
2022-09-15T13:42:08.754Z,988.76
2022-09-15T13:47:07.679Z,988.75
2022-09-15T13:52:07.597Z,988.71
2022-09-15T13:57:07.549Z,988.69
2022-09-15T14:02:08.430Z,988.66
2022-09-15T14:07:07.440Z,988.69
2022-09-15T14:12:07.337Z,988.66
2022-09-15T14:17:07.312Z,988.58
2022-09-15T14:22:07.199Z,988.58
2022-09-15T14:27:07.152Z,988.65
2022-09-15T14:32:07.127Z,988.58
2022-09-15T14:37:07.007Z,988.55
2022-09-15T14:42:06.930Z,988.53
2022-09-15T14:47:06.867Z,988.53
2022-09-15T14:52:06.792Z,988.53
2022-09-15T14:57:06.734Z,988.42
2022-09-15T15:02:06.722Z,988.40
2022-09-15T15:07:06.613Z,988.48
2022-09-15T15:12:06.529Z,988.57
2022-09-15T15:17:06.643Z,988.59
2022-09-15T15:22:06.405Z,988.58
2022-09-15T15:27:06.363Z,988.51
2022-09-15T15:32:06.379Z,988.51
2022-09-15T15:37:06.231Z,988.58
2022-09-15T15:42:06.151Z,988.66
2022-09-15T15:47:06.101Z,988.67
2022-09-15T15:52:06.025Z,988.61
2022-09-15T15:57:05.973Z,988.66
2022-09-15T16:02:05.922Z,988.66
2022-09-15T16:07:05.844Z,988.61
2022-09-15T16:12:05.775Z,988.67
2022-09-15T16:17:05.720Z,988.64
2022-09-15T16:22:05.648Z,988.67
2022-09-15T16:27:05.602Z,988.76
2022-09-15T16:32:05.526Z,988.73
2022-09-15T16:37:05.475Z,988.82
2022-09-15T16:42:05.410Z,988.82
2022-09-15T16:47:05.348Z,988.83
2022-09-15T16:52:05.271Z,988.87
2022-09-15T16:57:05.222Z,988.82
2022-09-15T17:02:05.177Z,988.88
2022-09-15T17:07:05.090Z,988.89
2022-09-15T17:12:05.062Z,988.97
2022-09-15T17:17:04.958Z,988.86
2022-09-15T17:22:04.877Z,988.93
2022-09-15T17:27:04.828Z,988.94
2022-09-15T17:32:04.744Z,988.97
2022-09-15T17:37:04.695Z,989.03
2022-09-15T17:42:04.621Z,989.04
2022-09-15T17:47:04.553Z,989.06
2022-09-15T17:52:04.478Z,989.04
2022-09-15T17:57:04.421Z,989.02
2022-09-15T18:02:04.467Z,989.03
2022-09-15T18:07:04.288Z,989.12
2022-09-15T18:12:04.216Z,989.13
2022-09-15T18:17:04.158Z,989.14
2022-09-15T18:22:04.084Z,989.14
2022-09-15T18:27:04.038Z,989.18
2022-09-15T18:32:03.951Z,989.19
2022-09-15T18:37:03.905Z,989.23
2022-09-15T18:42:03.823Z,989.31
2022-09-15T18:47:03.772Z,989.33
2022-09-15T18:52:03.688Z,989.39
2022-09-15T18:57:03.642Z,989.38
2022-09-15T19:02:03.684Z,989.47
2022-09-15T19:07:03.498Z,989.47
2022-09-15T19:12:03.425Z,989.51
2022-09-15T19:17:03.421Z,989.51
2022-09-15T19:22:03.296Z,989.60
2022-09-15T19:27:03.237Z,989.63
2022-09-15T19:32:03.167Z,989.67
2022-09-15T19:37:05.806Z,989.58
2022-09-15T19:42:03.089Z,989.54
2022-09-15T19:47:02.974Z,989.61
2022-09-15T19:52:02.906Z,989.52
2022-09-15T19:57:02.842Z,989.61
2022-09-15T20:02:02.790Z,989.66
2022-09-15T20:07:02.713Z,989.72
2022-09-15T20:12:02.640Z,989.76
2022-09-15T20:17:02.617Z,989.76
2022-09-15T20:22:02.528Z,989.81
2022-09-15T20:27:02.451Z,989.93
2022-09-15T20:32:02.387Z,989.87
2022-09-15T20:37:02.323Z,989.85
2022-09-15T20:42:02.258Z,989.85
2022-09-15T20:47:02.189Z,989.86
2022-09-15T20:52:02.128Z,989.89
2022-09-15T20:57:02.058Z,989.96
2022-09-15T21:02:02.141Z,990.00
2022-09-15T21:07:01.929Z,990.06
2022-09-15T21:12:01.859Z,990.14
2022-09-15T21:17:01.807Z,990.17
2022-09-15T21:22:01.729Z,990.21
2022-09-15T21:27:01.668Z,990.26
2022-09-15T21:32:01.671Z,990.38
2022-09-15T21:37:01.540Z,990.35
2022-09-15T21:42:01.478Z,990.38
2022-09-15T21:47:01.406Z,990.40
2022-09-15T21:52:01.347Z,990.29
2022-09-15T21:57:01.282Z,990.40
2022-09-15T22:02:01.340Z,990.46
2022-09-15T22:07:01.148Z,990.42
2022-09-15T22:12:01.084Z,990.47
2022-09-15T22:17:01.019Z,990.45
2022-09-15T22:22:00.946Z,990.47
2022-09-15T22:27:00.884Z,990.53
2022-09-15T22:32:00.891Z,990.47
2022-09-15T22:37:00.756Z,990.45
2022-09-15T22:42:00.676Z,990.45
2022-09-15T22:47:00.617Z,990.45
2022-09-15T22:52:00.540Z,990.41
2022-09-15T22:57:00.482Z,990.49
2022-09-15T23:02:00.537Z,990.50
2022-09-15T23:07:00.348Z,990.54
2022-09-15T23:12:00.292Z,990.56
2022-09-15T23:17:00.217Z,990.58
2022-09-15T23:22:00.149Z,990.62
2022-09-15T23:27:00.084Z,990.64
2022-09-15T23:32:00.014Z,990.60
2022-09-15T23:36:59.944Z,990.56
2022-09-15T23:41:59.870Z,990.56
2022-09-15T23:46:59.894Z,990.59
2022-09-15T23:51:59.734Z,990.57
2022-09-15T23:56:59.673Z,990.60
